sensor_id;sensor_type;location;lat;lon;timestamp;P1;durP1;ratioP1;P2;durP2;ratioP2
21036;SDS011;10677;50.942;4.028;2023-04-06T00:00:59;26.48;;;14.07;;
21036;SDS011;10677;50.942;4.028;2023-04-06T00:03:25;27.73;;;14.00;;
21036;SDS011;10677;50.942;4.028;2023-04-06T00:05:51;27.25;;;13.25;;
21036;SDS011;10677;50.942;4.028;2023-04-06T00:08:17;27.27;;;14.23;;
21036;SDS011;10677;50.942;4.028;2023-04-06T00:10:43;28.98;;;14.23;;
21036;SDS011;10677;50.942;4.028;2023-04-06T00:13:09;25.75;;;12.90;;
21036;SDS011;10677;50.942;4.028;2023-04-06T00:15:35;26.67;;;13.40;;
21036;SDS011;10677;50.942;4.028;2023-04-06T00:18:01;28.20;;;13.65;;
21036;SDS011;10677;50.942;4.028;2023-04-06T00:20:27;25.48;;;13.63;;
21036;SDS011;10677;50.942;4.028;2023-04-06T00:22:53;26.35;;;13.20;;
21036;SDS011;10677;50.942;4.028;2023-04-06T00:25:19;27.77;;;12.65;;
21036;SDS011;10677;50.942;4.028;2023-04-06T00:27:45;32.47;;;12.70;;
21036;SDS011;10677;50.942;4.028;2023-04-06T00:30:10;25.08;;;12.98;;
21036;SDS011;10677;50.942;4.028;2023-04-06T00:32:36;26.95;;;13.52;;
21036;SDS011;10677;50.942;4.028;2023-04-06T00:35:05;27.73;;;13.70;;
21036;SDS011;10677;50.942;4.028;2023-04-06T00:37:31;24.38;;;12.95;;
21036;SDS011;10677;50.942;4.028;2023-04-06T00:39:57;26.50;;;13.13;;
21036;SDS011;10677;50.942;4.028;2023-04-06T00:42:23;26.17;;;13.23;;
21036;SDS011;10677;50.942;4.028;2023-04-06T00:44:53;23.63;;;12.55;;
21036;SDS011;10677;50.942;4.028;2023-04-06T00:47:19;26.95;;;12.80;;
21036;SDS011;10677;50.942;4.028;2023-04-06T00:49:45;25.20;;;13.00;;
21036;SDS011;10677;50.942;4.028;2023-04-06T00:52:11;26.10;;;13.13;;
21036;SDS011;10677;50.942;4.028;2023-04-06T00:54:37;26.75;;;12.85;;
21036;SDS011;10677;50.942;4.028;2023-04-06T00:57:03;26.17;;;13.40;;
21036;SDS011;10677;50.942;4.028;2023-04-06T00:59:28;25.85;;;13.18;;
21036;SDS011;10677;50.942;4.028;2023-04-06T01:01:54;29.10;;;13.98;;
21036;SDS011;10677;50.942;4.028;2023-04-06T01:04:20;26.40;;;13.23;;
21036;SDS011;10677;50.942;4.028;2023-04-06T01:06:48;23.95;;;13.30;;
21036;SDS011;10677;50.942;4.028;2023-04-06T01:09:14;29.92;;;13.77;;
21036;SDS011;10677;50.942;4.028;2023-04-06T01:11:40;24.35;;;12.88;;
21036;SDS011;10677;50.942;4.028;2023-04-06T01:14:06;29.70;;;13.30;;
21036;SDS011;10677;50.942;4.028;2023-04-06T01:16:32;28.33;;;14.70;;
21036;SDS011;10677;50.942;4.028;2023-04-06T01:18:58;28.20;;;13.32;;
21036;SDS011;10677;50.942;4.028;2023-04-06T01:21:24;26.48;;;12.57;;
21036;SDS011;10677;50.942;4.028;2023-04-06T01:23:50;25.02;;;12.88;;
21036;SDS011;10677;50.942;4.028;2023-04-06T01:26:15;24.70;;;12.48;;
21036;SDS011;10677;50.942;4.028;2023-04-06T01:28:41;25.38;;;14.05;;
21036;SDS011;10677;50.942;4.028;2023-04-06T01:31:07;28.48;;;13.90;;
21036;SDS011;10677;50.942;4.028;2023-04-06T01:33:34;25.48;;;12.82;;
21036;SDS011;10677;50.942;4.028;2023-04-06T01:36:00;25.55;;;13.65;;
21036;SDS011;10677;50.942;4.028;2023-04-06T01:38:26;25.05;;;12.95;;
21036;SDS011;10677;50.942;4.028;2023-04-06T01:40:52;26.10;;;12.77;;
21036;SDS011;10677;50.942;4.028;2023-04-06T01:43:19;24.05;;;12.77;;
21036;SDS011;10677;50.942;4.028;2023-04-06T01:45:44;27.92;;;14.07;;
21036;SDS011;10677;50.942;4.028;2023-04-06T01:48:10;23.92;;;13.23;;
21036;SDS011;10677;50.942;4.028;2023-04-06T01:50:36;28.27;;;14.35;;
21036;SDS011;10677;50.942;4.028;2023-04-06T01:53:01;27.17;;;13.70;;
21036;SDS011;10677;50.942;4.028;2023-04-06T01:55:27;25.92;;;13.80;;
21036;SDS011;10677;50.942;4.028;2023-04-06T01:57:52;25.52;;;13.05;;
21036;SDS011;10677;50.942;4.028;2023-04-06T02:00:18;24.23;;;13.40;;
21036;SDS011;10677;50.942;4.028;2023-04-06T02:02:44;26.38;;;13.82;;
21036;SDS011;10677;50.942;4.028;2023-04-06T02:05:10;26.58;;;13.18;;
21036;SDS011;10677;50.942;4.028;2023-04-06T02:07:36;32.30;;;15.45;;
21036;SDS011;10677;50.942;4.028;2023-04-06T02:10:02;25.13;;;13.60;;
21036;SDS011;10677;50.942;4.028;2023-04-06T02:12:28;28.10;;;13.88;;
21036;SDS011;10677;50.942;4.028;2023-04-06T02:14:53;32.92;;;13.70;;
21036;SDS011;10677;50.942;4.028;2023-04-06T02:17:19;27.00;;;14.00;;
21036;SDS011;10677;50.942;4.028;2023-04-06T02:19:45;25.02;;;13.52;;
21036;SDS011;10677;50.942;4.028;2023-04-06T02:22:11;27.52;;;13.38;;
21036;SDS011;10677;50.942;4.028;2023-04-06T02:24:36;25.10;;;14.13;;
21036;SDS011;10677;50.942;4.028;2023-04-06T02:27:02;27.35;;;14.20;;
21036;SDS011;10677;50.942;4.028;2023-04-06T02:29:28;26.23;;;14.18;;
21036;SDS011;10677;50.942;4.028;2023-04-06T02:31:53;27.23;;;15.07;;
21036;SDS011;10677;50.942;4.028;2023-04-06T02:34:19;29.88;;;14.45;;
21036;SDS011;10677;50.942;4.028;2023-04-06T02:36:45;27.10;;;14.30;;
21036;SDS011;10677;50.942;4.028;2023-04-06T02:39:12;28.40;;;14.95;;
21036;SDS011;10677;50.942;4.028;2023-04-06T02:41:38;26.00;;;14.63;;
21036;SDS011;10677;50.942;4.028;2023-04-06T02:44:05;23.73;;;13.30;;
21036;SDS011;10677;50.942;4.028;2023-04-06T02:46:32;30.40;;;14.43;;
21036;SDS011;10677;50.942;4.028;2023-04-06T02:48:58;25.95;;;15.07;;
21036;SDS011;10677;50.942;4.028;2023-04-06T02:51:25;27.67;;;15.10;;
21036;SDS011;10677;50.942;4.028;2023-04-06T02:53:51;27.65;;;14.60;;
21036;SDS011;10677;50.942;4.028;2023-04-06T02:56:17;26.23;;;14.90;;
21036;SDS011;10677;50.942;4.028;2023-04-06T02:58:43;26.90;;;14.02;;
21036;SDS011;10677;50.942;4.028;2023-04-06T03:01:08;25.02;;;13.27;;
21036;SDS011;10677;50.942;4.028;2023-04-06T03:03:34;27.02;;;14.10;;
21036;SDS011;10677;50.942;4.028;2023-04-06T03:06:00;29.73;;;14.77;;
21036;SDS011;10677;50.942;4.028;2023-04-06T03:08:26;27.30;;;14.05;;
21036;SDS011;10677;50.942;4.028;2023-04-06T03:10:51;30.73;;;14.88;;
21036;SDS011;10677;50.942;4.028;2023-04-06T03:13:17;27.00;;;14.88;;
21036;SDS011;10677;50.942;4.028;2023-04-06T03:15:42;26.85;;;14.93;;
21036;SDS011;10677;50.942;4.028;2023-04-06T03:18:08;26.88;;;15.20;;
21036;SDS011;10677;50.942;4.028;2023-04-06T03:20:34;24.02;;;14.00;;
21036;SDS011;10677;50.942;4.028;2023-04-06T03:22:59;26.08;;;14.95;;
21036;SDS011;10677;50.942;4.028;2023-04-06T03:25:25;25.70;;;14.23;;
21036;SDS011;10677;50.942;4.028;2023-04-06T03:27:51;28.92;;;15.10;;
21036;SDS011;10677;50.942;4.028;2023-04-06T03:30:16;28.63;;;15.40;;
21036;SDS011;10677;50.942;4.028;2023-04-06T03:32:43;27.15;;;14.52;;
21036;SDS011;10677;50.942;4.028;2023-04-06T03:35:11;28.63;;;15.68;;
21036;SDS011;10677;50.942;4.028;2023-04-06T03:37:37;27.08;;;15.45;;
21036;SDS011;10677;50.942;4.028;2023-04-06T03:40:03;28.08;;;15.45;;
21036;SDS011;10677;50.942;4.028;2023-04-06T03:42:29;30.30;;;14.93;;
21036;SDS011;10677;50.942;4.028;2023-04-06T03:44:55;25.48;;;15.63;;
21036;SDS011;10677;50.942;4.028;2023-04-06T03:47:21;30.77;;;16.60;;
21036;SDS011;10677;50.942;4.028;2023-04-06T03:49:47;28.50;;;16.80;;
21036;SDS011;10677;50.942;4.028;2023-04-06T03:52:13;27.95;;;15.52;;
21036;SDS011;10677;50.942;4.028;2023-04-06T03:54:38;28.85;;;16.33;;
21036;SDS011;10677;50.942;4.028;2023-04-06T03:57:04;27.95;;;16.42;;
21036;SDS011;10677;50.942;4.028;2023-04-06T03:59:30;32.95;;;16.65;;
21036;SDS011;10677;50.942;4.028;2023-04-06T04:01:56;30.65;;;16.80;;
21036;SDS011;10677;50.942;4.028;2023-04-06T04:04:21;30.35;;;16.33;;
21036;SDS011;10677;50.942;4.028;2023-04-06T04:06:47;32.17;;;16.75;;
21036;SDS011;10677;50.942;4.028;2023-04-06T04:09:13;26.67;;;16.20;;
21036;SDS011;10677;50.942;4.028;2023-04-06T04:11:38;28.13;;;16.58;;
21036;SDS011;10677;50.942;4.028;2023-04-06T04:14:04;29.13;;;17.05;;
21036;SDS011;10677;50.942;4.028;2023-04-06T04:16:30;29.00;;;16.55;;
21036;SDS011;10677;50.942;4.028;2023-04-06T04:18:55;29.95;;;16.77;;
21036;SDS011;10677;50.942;4.028;2023-04-06T04:21:23;29.95;;;17.05;;
21036;SDS011;10677;50.942;4.028;2023-04-06T04:23:48;32.88;;;17.70;;
21036;SDS011;10677;50.942;4.028;2023-04-06T04:26:14;33.58;;;17.50;;
21036;SDS011;10677;50.942;4.028;2023-04-06T04:28:40;27.90;;;17.08;;
21036;SDS011;10677;50.942;4.028;2023-04-06T04:31:06;33.25;;;16.92;;
21036;SDS011;10677;50.942;4.028;2023-04-06T04:33:31;29.60;;;17.52;;
21036;SDS011;10677;50.942;4.028;2023-04-06T04:35:57;31.30;;;16.60;;
21036;SDS011;10677;50.942;4.028;2023-04-06T04:38:22;27.25;;;16.50;;
21036;SDS011;10677;50.942;4.028;2023-04-06T04:40:48;28.67;;;17.13;;
21036;SDS011;10677;50.942;4.028;2023-04-06T04:43:14;32.08;;;17.35;;
21036;SDS011;10677;50.942;4.028;2023-04-06T04:45:40;31.98;;;17.85;;
21036;SDS011;10677;50.942;4.028;2023-04-06T04:48:05;31.73;;;17.27;;
21036;SDS011;10677;50.942;4.028;2023-04-06T04:50:32;31.85;;;18.48;;
21036;SDS011;10677;50.942;4.028;2023-04-06T04:52:58;28.42;;;17.30;;
21036;SDS011;10677;50.942;4.028;2023-04-06T04:55:24;31.27;;;18.67;;
21036;SDS011;10677;50.942;4.028;2023-04-06T04:57:49;34.85;;;18.05;;
21036;SDS011;10677;50.942;4.028;2023-04-06T05:00:15;33.05;;;19.15;;
21036;SDS011;10677;50.942;4.028;2023-04-06T05:02:41;29.60;;;17.55;;
21036;SDS011;10677;50.942;4.028;2023-04-06T05:05:07;29.92;;;17.67;;
21036;SDS011;10677;50.942;4.028;2023-04-06T05:07:33;32.55;;;18.10;;
21036;SDS011;10677;50.942;4.028;2023-04-06T05:09:58;33.20;;;18.38;;
21036;SDS011;10677;50.942;4.028;2023-04-06T05:12:24;29.83;;;17.88;;
21036;SDS011;10677;50.942;4.028;2023-04-06T05:14:52;29.92;;;18.52;;
21036;SDS011;10677;50.942;4.028;2023-04-06T05:17:18;34.20;;;20.05;;
21036;SDS011;10677;50.942;4.028;2023-04-06T05:19:44;33.03;;;19.80;;
21036;SDS011;10677;50.942;4.028;2023-04-06T05:22:10;31.33;;;17.85;;
21036;SDS011;10677;50.942;4.028;2023-04-06T05:24:37;32.15;;;18.27;;
21036;SDS011;10677;50.942;4.028;2023-04-06T05:27:04;35.47;;;18.08;;
21036;SDS011;10677;50.942;4.028;2023-04-06T05:29:30;33.35;;;18.15;;
21036;SDS011;10677;50.942;4.028;2023-04-06T05:31:55;32.53;;;17.95;;
21036;SDS011;10677;50.942;4.028;2023-04-06T05:34:21;35.35;;;18.27;;
21036;SDS011;10677;50.942;4.028;2023-04-06T05:36:47;30.67;;;17.15;;
21036;SDS011;10677;50.942;4.028;2023-04-06T05:39:12;33.38;;;18.00;;
21036;SDS011;10677;50.942;4.028;2023-04-06T05:41:38;29.52;;;17.58;;
21036;SDS011;10677;50.942;4.028;2023-04-06T05:44:04;28.42;;;17.17;;
21036;SDS011;10677;50.942;4.028;2023-04-06T05:46:30;27.50;;;16.92;;
21036;SDS011;10677;50.942;4.028;2023-04-06T05:48:55;30.25;;;16.33;;
21036;SDS011;10677;50.942;4.028;2023-04-06T05:51:21;28.38;;;16.92;;
21036;SDS011;10677;50.942;4.028;2023-04-06T05:53:47;33.15;;;17.52;;
21036;SDS011;10677;50.942;4.028;2023-04-06T05:56:12;29.92;;;17.10;;
21036;SDS011;10677;50.942;4.028;2023-04-06T05:58:38;31.73;;;17.45;;
21036;SDS011;10677;50.942;4.028;2023-04-06T06:01:04;27.65;;;16.83;;
21036;SDS011;10677;50.942;4.028;2023-04-06T06:03:29;31.45;;;17.27;;
21036;SDS011;10677;50.942;4.028;2023-04-06T06:05:59;32.40;;;18.00;;
21036;SDS011;10677;50.942;4.028;2023-04-06T06:08:28;35.22;;;18.77;;
21036;SDS011;10677;50.942;4.028;2023-04-06T06:10:55;30.77;;;17.20;;
21036;SDS011;10677;50.942;4.028;2023-04-06T06:13:21;33.75;;;20.40;;
21036;SDS011;10677;50.942;4.028;2023-04-06T06:15:48;34.25;;;19.58;;
21036;SDS011;10677;50.942;4.028;2023-04-06T06:18:14;37.08;;;21.25;;
21036;SDS011;10677;50.942;4.028;2023-04-06T06:20:39;32.33;;;20.25;;
21036;SDS011;10677;50.942;4.028;2023-04-06T06:23:05;35.53;;;20.95;;
21036;SDS011;10677;50.942;4.028;2023-04-06T06:25:30;30.77;;;18.38;;
21036;SDS011;10677;50.942;4.028;2023-04-06T06:27:57;35.35;;;20.27;;
21036;SDS011;10677;50.942;4.028;2023-04-06T06:30:23;33.92;;;19.23;;
21036;SDS011;10677;50.942;4.028;2023-04-06T06:32:49;35.80;;;20.17;;
21036;SDS011;10677;50.942;4.028;2023-04-06T06:35:16;32.75;;;19.70;;
21036;SDS011;10677;50.942;4.028;2023-04-06T06:37:42;36.05;;;19.73;;
21036;SDS011;10677;50.942;4.028;2023-04-06T06:40:08;42.67;;;20.05;;
21036;SDS011;10677;50.942;4.028;2023-04-06T06:42:35;32.97;;;19.67;;
21036;SDS011;10677;50.942;4.028;2023-04-06T06:45:01;38.53;;;21.17;;
21036;SDS011;10677;50.942;4.028;2023-04-06T06:47:26;35.47;;;20.05;;
21036;SDS011;10677;50.942;4.028;2023-04-06T06:49:52;36.45;;;20.70;;
21036;SDS011;10677;50.942;4.028;2023-04-06T06:52:18;37.83;;;21.25;;
21036;SDS011;10677;50.942;4.028;2023-04-06T06:54:44;39.33;;;20.08;;
21036;SDS011;10677;50.942;4.028;2023-04-06T06:57:09;37.67;;;20.27;;
21036;SDS011;10677;50.942;4.028;2023-04-06T06:59:35;37.90;;;19.90;;
21036;SDS011;10677;50.942;4.028;2023-04-06T07:02:02;40.95;;;20.13;;
21036;SDS011;10677;50.942;4.028;2023-04-06T07:04:28;37.90;;;20.13;;
21036;SDS011;10677;50.942;4.028;2023-04-06T07:06:53;32.90;;;19.50;;
21036;SDS011;10677;50.942;4.028;2023-04-06T07:09:19;37.08;;;18.63;;
21036;SDS011;10677;50.942;4.028;2023-04-06T07:11:45;34.03;;;19.15;;
21036;SDS011;10677;50.942;4.028;2023-04-06T07:14:11;30.45;;;18.25;;
21036;SDS011;10677;50.942;4.028;2023-04-06T07:16:37;29.88;;;18.20;;
21036;SDS011;10677;50.942;4.028;2023-04-06T07:19:03;30.35;;;16.75;;
21036;SDS011;10677;50.942;4.028;2023-04-06T07:21:29;31.33;;;16.80;;
21036;SDS011;10677;50.942;4.028;2023-04-06T07:23:54;28.88;;;16.85;;
21036;SDS011;10677;50.942;4.028;2023-04-06T07:26:20;33.30;;;16.90;;
21036;SDS011;10677;50.942;4.028;2023-04-06T07:28:46;25.60;;;15.15;;
21036;SDS011;10677;50.942;4.028;2023-04-06T07:31:13;29.35;;;15.70;;
21036;SDS011;10677;50.942;4.028;2023-04-06T07:33:38;28.92;;;14.35;;
21036;SDS011;10677;50.942;4.028;2023-04-06T07:36:05;26.50;;;15.15;;
21036;SDS011;10677;50.942;4.028;2023-04-06T07:38:30;23.75;;;14.15;;
21036;SDS011;10677;50.942;4.028;2023-04-06T07:40:56;24.85;;;13.95;;
21036;SDS011;10677;50.942;4.028;2023-04-06T07:43:22;24.17;;;14.07;;
21036;SDS011;10677;50.942;4.028;2023-04-06T07:45:47;23.95;;;13.75;;
21036;SDS011;10677;50.942;4.028;2023-04-06T07:48:13;27.27;;;14.00;;
21036;SDS011;10677;50.942;4.028;2023-04-06T07:50:39;27.55;;;14.30;;
21036;SDS011;10677;50.942;4.028;2023-04-06T07:53:05;22.30;;;11.52;;
21036;SDS011;10677;50.942;4.028;2023-04-06T07:55:30;19.75;;;11.30;;
21036;SDS011;10677;50.942;4.028;2023-04-06T07:57:56;19.98;;;11.30;;
21036;SDS011;10677;50.942;4.028;2023-04-06T08:00:22;18.60;;;10.73;;
21036;SDS011;10677;50.942;4.028;2023-04-06T08:02:48;17.17;;;10.15;;
21036;SDS011;10677;50.942;4.028;2023-04-06T08:05:13;20.92;;;11.27;;
21036;SDS011;10677;50.942;4.028;2023-04-06T08:07:39;20.10;;;9.90;;
21036;SDS011;10677;50.942;4.028;2023-04-06T08:10:05;18.75;;;9.75;;
21036;SDS011;10677;50.942;4.028;2023-04-06T08:12:32;15.18;;;9.38;;
21036;SDS011;10677;50.942;4.028;2023-04-06T08:14:58;16.52;;;8.95;;
21036;SDS011;10677;50.942;4.028;2023-04-06T08:17:24;18.13;;;9.40;;
21036;SDS011;10677;50.942;4.028;2023-04-06T08:19:50;14.07;;;8.88;;
21036;SDS011;10677;50.942;4.028;2023-04-06T08:22:16;16.50;;;8.55;;
21036;SDS011;10677;50.942;4.028;2023-04-06T08:24:42;18.35;;;9.15;;
21036;SDS011;10677;50.942;4.028;2023-04-06T08:27:07;17.63;;;8.23;;
21036;SDS011;10677;50.942;4.028;2023-04-06T08:29:33;13.00;;;8.98;;
21036;SDS011;10677;50.942;4.028;2023-04-06T08:31:59;15.52;;;9.00;;
21036;SDS011;10677;50.942;4.028;2023-04-06T08:34:25;16.67;;;8.88;;
21036;SDS011;10677;50.942;4.028;2023-04-06T08:36:51;16.42;;;9.43;;
21036;SDS011;10677;50.942;4.028;2023-04-06T08:39:17;16.40;;;9.20;;
21036;SDS011;10677;50.942;4.028;2023-04-06T08:41:50;18.50;;;9.57;;
21036;SDS011;10677;50.942;4.028;2023-04-06T08:44:17;13.05;;;8.25;;
21036;SDS011;10677;50.942;4.028;2023-04-06T08:46:43;19.85;;;9.05;;
21036;SDS011;10677;50.942;4.028;2023-04-06T08:49:09;17.50;;;9.02;;
21036;SDS011;10677;50.942;4.028;2023-04-06T08:51:36;17.25;;;8.82;;
21036;SDS011;10677;50.942;4.028;2023-04-06T08:54:03;15.00;;;8.98;;
21036;SDS011;10677;50.942;4.028;2023-04-06T08:56:28;20.50;;;9.23;;
21036;SDS011;10677;50.942;4.028;2023-04-06T08:58:54;15.55;;;8.98;;
21036;SDS011;10677;50.942;4.028;2023-04-06T09:01:21;26.10;;;14.38;;
21036;SDS011;10677;50.942;4.028;2023-04-06T09:03:50;19.08;;;9.77;;
21036;SDS011;10677;50.942;4.028;2023-04-06T09:06:20;18.25;;;10.85;;
21036;SDS011;10677;50.942;4.028;2023-04-06T09:08:46;19.10;;;10.30;;
21036;SDS011;10677;50.942;4.028;2023-04-06T09:11:13;21.10;;;10.68;;
21036;SDS011;10677;50.942;4.028;2023-04-06T09:13:46;19.13;;;9.93;;
21036;SDS011;10677;50.942;4.028;2023-04-06T09:16:13;20.05;;;10.07;;
21036;SDS011;10677;50.942;4.028;2023-04-06T09:18:40;18.75;;;10.20;;
21036;SDS011;10677;50.942;4.028;2023-04-06T09:21:06;17.48;;;9.68;;
21036;SDS011;10677;50.942;4.028;2023-04-06T09:23:33;15.48;;;10.20;;
21036;SDS011;10677;50.942;4.028;2023-04-06T09:26:05;18.55;;;9.80;;
21036;SDS011;10677;50.942;4.028;2023-04-06T09:28:51;18.10;;;10.45;;
21036;SDS011;10677;50.942;4.028;2023-04-06T09:31:23;20.27;;;11.15;;
21036;SDS011;10677;50.942;4.028;2023-04-06T09:33:50;20.75;;;11.38;;
21036;SDS011;10677;50.942;4.028;2023-04-06T09:36:17;19.15;;;10.50;;
21036;SDS011;10677;50.942;4.028;2023-04-06T09:39:04;25.75;;;11.38;;
21036;SDS011;10677;50.942;4.028;2023-04-06T09:41:31;25.65;;;12.07;;
21036;SDS011;10677;50.942;4.028;2023-04-06T09:46:37;23.50;;;12.45;;
21036;SDS011;10677;50.942;4.028;2023-04-06T09:49:07;26.42;;;12.77;;
21036;SDS011;10677;50.942;4.028;2023-04-06T09:51:55;29.88;;;12.35;;
21036;SDS011;10677;50.942;4.028;2023-04-06T09:54:25;25.95;;;13.07;;
21036;SDS011;10677;50.942;4.028;2023-04-06T10:02:18;27.58;;;13.85;;
21036;SDS011;10677;50.942;4.028;2023-04-06T10:07:59;26.35;;;12.90;;
21036;SDS011;10677;50.942;4.028;2023-04-06T10:10:30;21.45;;;11.90;;
21036;SDS011;10677;50.942;4.028;2023-04-06T10:12:56;25.77;;;11.00;;
21036;SDS011;10677;50.942;4.028;2023-04-06T10:15:22;31.20;;;12.55;;
21036;SDS011;10677;50.942;4.028;2023-04-06T10:17:49;20.67;;;11.75;;
21036;SDS011;10677;50.942;4.028;2023-04-06T10:25:33;19.92;;;10.77;;
21036;SDS011;10677;50.942;4.028;2023-04-06T10:28:04;20.73;;;11.18;;
21036;SDS011;10677;50.942;4.028;2023-04-06T10:30:32;22.23;;;11.40;;
21036;SDS011;10677;50.942;4.028;2023-04-06T10:32:58;19.70;;;10.70;;
21036;SDS011;10677;50.942;4.028;2023-04-06T10:35:24;22.58;;;10.93;;
21036;SDS011;10677;50.942;4.028;2023-04-06T10:38:03;23.30;;;12.07;;
21036;SDS011;10677;50.942;4.028;2023-04-06T10:40:29;22.42;;;12.48;;
21036;SDS011;10677;50.942;4.028;2023-04-06T10:43:06;19.25;;;10.85;;
21036;SDS011;10677;50.942;4.028;2023-04-06T10:45:56;21.58;;;11.90;;
21036;SDS011;10677;50.942;4.028;2023-04-06T10:48:25;19.92;;;11.25;;
21036;SDS011;10677;50.942;4.028;2023-04-06T10:51:00;18.45;;;10.82;;
21036;SDS011;10677;50.942;4.028;2023-04-06T10:53:27;18.33;;;11.70;;
21036;SDS011;10677;50.942;4.028;2023-04-06T10:55:56;17.85;;;10.90;;
21036;SDS011;10677;50.942;4.028;2023-04-06T10:58:26;18.73;;;11.30;;
21036;SDS011;10677;50.942;4.028;2023-04-06T11:00:52;17.45;;;10.93;;
21036;SDS011;10677;50.942;4.028;2023-04-06T11:03:19;18.40;;;11.00;;
21036;SDS011;10677;50.942;4.028;2023-04-06T11:05:46;19.92;;;10.55;;
21036;SDS011;10677;50.942;4.028;2023-04-06T11:08:30;19.23;;;11.60;;
21036;SDS011;10677;50.942;4.028;2023-04-06T11:13:39;18.00;;;11.63;;
21036;SDS011;10677;50.942;4.028;2023-04-06T11:18:53;19.30;;;11.05;;
21036;SDS011;10677;50.942;4.028;2023-04-06T11:21:20;17.77;;;11.27;;
21036;SDS011;10677;50.942;4.028;2023-04-06T11:26:36;20.98;;;11.95;;
21036;SDS011;10677;50.942;4.028;2023-04-06T11:29:06;17.05;;;11.50;;
21036;SDS011;10677;50.942;4.028;2023-04-06T11:31:37;17.15;;;11.57;;
21036;SDS011;10677;50.942;4.028;2023-04-06T11:34:11;16.30;;;10.52;;
21036;SDS011;10677;50.942;4.028;2023-04-06T11:36:42;17.25;;;11.50;;
21036;SDS011;10677;50.942;4.028;2023-04-06T11:39:09;16.77;;;10.90;;
21036;SDS011;10677;50.942;4.028;2023-04-06T11:41:36;18.30;;;10.90;;
21036;SDS011;10677;50.942;4.028;2023-04-06T11:44:02;15.15;;;9.52;;
21036;SDS011;10677;50.942;4.028;2023-04-06T11:46:28;16.45;;;10.05;;
21036;SDS011;10677;50.942;4.028;2023-04-06T11:48:57;17.70;;;11.02;;
21036;SDS011;10677;50.942;4.028;2023-04-06T11:51:25;16.02;;;10.85;;
21036;SDS011;10677;50.942;4.028;2023-04-06T11:53:51;18.30;;;10.20;;
21036;SDS011;10677;50.942;4.028;2023-04-06T11:56:28;16.33;;;10.50;;
21036;SDS011;10677;50.942;4.028;2023-04-06T11:58:58;15.30;;;9.82;;
21036;SDS011;10677;50.942;4.028;2023-04-06T12:01:26;15.52;;;9.57;;
21036;SDS011;10677;50.942;4.028;2023-04-06T12:03:52;17.67;;;10.27;;
21036;SDS011;10677;50.942;4.028;2023-04-06T12:06:18;15.52;;;9.75;;
21036;SDS011;10677;50.942;4.028;2023-04-06T12:08:44;15.65;;;9.63;;
21036;SDS011;10677;50.942;4.028;2023-04-06T12:11:10;17.63;;;9.98;;
21036;SDS011;10677;50.942;4.028;2023-04-06T12:13:36;15.30;;;9.68;;
21036;SDS011;10677;50.942;4.028;2023-04-06T12:16:02;16.23;;;10.10;;
21036;SDS011;10677;50.942;4.028;2023-04-06T12:18:28;15.35;;;10.43;;
21036;SDS011;10677;50.942;4.028;2023-04-06T12:20:55;15.02;;;9.27;;
21036;SDS011;10677;50.942;4.028;2023-04-06T12:23:22;14.65;;;9.13;;
21036;SDS011;10677;50.942;4.028;2023-04-06T12:25:47;13.70;;;9.32;;
21036;SDS011;10677;50.942;4.028;2023-04-06T12:28:13;15.15;;;9.55;;
21036;SDS011;10677;50.942;4.028;2023-04-06T12:30:39;14.43;;;8.63;;
21036;SDS011;10677;50.942;4.028;2023-04-06T12:33:06;13.57;;;9.25;;
21036;SDS011;10677;50.942;4.028;2023-04-06T12:35:34;15.90;;;10.13;;
21036;SDS011;10677;50.942;4.028;2023-04-06T12:38:01;15.73;;;10.52;;
21036;SDS011;10677;50.942;4.028;2023-04-06T12:40:27;15.05;;;9.85;;
21036;SDS011;10677;50.942;4.028;2023-04-06T12:42:53;16.27;;;10.73;;
21036;SDS011;10677;50.942;4.028;2023-04-06T12:45:19;17.55;;;10.60;;
21036;SDS011;10677;50.942;4.028;2023-04-06T12:47:44;17.13;;;10.77;;
21036;SDS011;10677;50.942;4.028;2023-04-06T12:50:10;17.95;;;11.43;;
21036;SDS011;10677;50.942;4.028;2023-04-06T12:52:36;18.05;;;11.25;;
21036;SDS011;10677;50.942;4.028;2023-04-06T12:55:04;18.73;;;11.60;;
21036;SDS011;10677;50.942;4.028;2023-04-06T12:57:31;16.42;;;10.35;;
21036;SDS011;10677;50.942;4.028;2023-04-06T12:59:57;18.58;;;11.60;;
21036;SDS011;10677;50.942;4.028;2023-04-06T13:02:23;17.13;;;10.93;;
21036;SDS011;10677;50.942;4.028;2023-04-06T13:04:49;16.33;;;10.55;;
21036;SDS011;10677;50.942;4.028;2023-04-06T13:07:15;19.15;;;11.65;;
21036;SDS011;10677;50.942;4.028;2023-04-06T13:09:41;18.85;;;11.82;;
21036;SDS011;10677;50.942;4.028;2023-04-06T13:12:07;18.10;;;11.02;;
21036;SDS011;10677;50.942;4.028;2023-04-06T13:14:32;17.35;;;11.57;;
21036;SDS011;10677;50.942;4.028;2023-04-06T13:16:58;18.02;;;11.88;;
21036;SDS011;10677;50.942;4.028;2023-04-06T13:19:24;19.55;;;11.90;;
21036;SDS011;10677;50.942;4.028;2023-04-06T13:21:51;17.42;;;12.00;;
21036;SDS011;10677;50.942;4.028;2023-04-06T13:24:17;19.10;;;11.98;;
21036;SDS011;10677;50.942;4.028;2023-04-06T13:26:44;16.70;;;12.00;;
21036;SDS011;10677;50.942;4.028;2023-04-06T13:29:10;18.00;;;12.68;;
21036;SDS011;10677;50.942;4.028;2023-04-06T13:31:36;20.15;;;11.02;;
21036;SDS011;10677;50.942;4.028;2023-04-06T13:34:01;17.95;;;11.88;;
21036;SDS011;10677;50.942;4.028;2023-04-06T13:36:27;17.92;;;12.27;;
21036;SDS011;10677;50.942;4.028;2023-04-06T13:38:53;19.83;;;12.77;;
21036;SDS011;10677;50.942;4.028;2023-04-06T13:41:22;20.13;;;12.32;;
21036;SDS011;10677;50.942;4.028;2023-04-06T13:43:50;19.73;;;12.30;;
21036;SDS011;10677;50.942;4.028;2023-04-06T13:46:16;20.67;;;12.68;;
21036;SDS011;10677;50.942;4.028;2023-04-06T13:48:42;18.27;;;12.52;;
21036;SDS011;10677;50.942;4.028;2023-04-06T13:51:09;20.15;;;13.48;;
21036;SDS011;10677;50.942;4.028;2023-04-06T13:53:35;21.65;;;13.77;;
21036;SDS011;10677;50.942;4.028;2023-04-06T13:56:01;18.60;;;13.45;;
21036;SDS011;10677;50.942;4.028;2023-04-06T13:58:27;22.00;;;13.95;;
21036;SDS011;10677;50.942;4.028;2023-04-06T14:00:52;20.88;;;12.98;;
21036;SDS011;10677;50.942;4.028;2023-04-06T14:03:18;25.35;;;14.65;;
21036;SDS011;10677;50.942;4.028;2023-04-06T14:05:44;19.48;;;13.63;;
21036;SDS011;10677;50.942;4.028;2023-04-06T14:08:10;24.02;;;14.82;;
21036;SDS011;10677;50.942;4.028;2023-04-06T14:10:37;23.33;;;15.02;;
21036;SDS011;10677;50.942;4.028;2023-04-06T14:13:07;24.70;;;14.85;;
21036;SDS011;10677;50.942;4.028;2023-04-06T14:15:33;24.42;;;14.65;;
21036;SDS011;10677;50.942;4.028;2023-04-06T14:17:59;25.73;;;15.63;;
21036;SDS011;10677;50.942;4.028;2023-04-06T14:20:25;22.27;;;15.90;;
21036;SDS011;10677;50.942;4.028;2023-04-06T14:22:51;23.80;;;15.07;;
21036;SDS011;10677;50.942;4.028;2023-04-06T14:25:17;25.15;;;16.35;;
21036;SDS011;10677;50.942;4.028;2023-04-06T14:27:43;22.38;;;15.63;;
21036;SDS011;10677;50.942;4.028;2023-04-06T14:30:09;22.80;;;15.98;;
21036;SDS011;10677;50.942;4.028;2023-04-06T14:32:35;25.63;;;15.15;;
21036;SDS011;10677;50.942;4.028;2023-04-06T14:35:02;22.98;;;15.40;;
21036;SDS011;10677;50.942;4.028;2023-04-06T14:37:28;24.33;;;15.52;;
21036;SDS011;10677;50.942;4.028;2023-04-06T14:39:54;24.75;;;16.02;;
21036;SDS011;10677;50.942;4.028;2023-04-06T14:42:20;23.38;;;15.30;;
21036;SDS011;10677;50.942;4.028;2023-04-06T14:44:46;24.17;;;16.35;;